Terminal Aerodrome Forecast
Issued by NWS Lake Charles, LA

Home | Current Version | Previous Version | Text Only | Print | Product List | Glossary On
Versions: 1 2 3 4 5 6 7 8 9 10 11 12 13
000
FTUS44 KLCH 291122
TAFBPT
TAF
KBPT 291122Z 2912/3012 34003KT P6SM SKC
     FM291900 20007KT P6SM VCTS FEW040CB
     FM300000 VRB03KT P6SM SCT070=

USA.gov is the U.S. government's official web portal to all federal, state and local government web resources and services.